sensor_id;sensor_type;location;lat;lon;timestamp;P1;durP1;ratioP1;P2;durP2;ratioP2
72791;SDS011;60907;53.268;8.764;2023-06-26T00:01:16;6.93;;;5.90;;
72791;SDS011;60907;53.268;8.764;2023-06-26T00:03:42;8.68;;;5.63;;
72791;SDS011;60907;53.268;8.764;2023-06-26T00:06:07;9.53;;;6.10;;
72791;SDS011;60907;53.268;8.764;2023-06-26T00:08:33;9.20;;;5.80;;
72791;SDS011;60907;53.268;8.764;2023-06-26T00:10:58;7.97;;;6.10;;
72791;SDS011;60907;53.268;8.764;2023-06-26T00:13:24;8.20;;;5.70;;
72791;SDS011;60907;53.268;8.764;2023-06-26T00:15:50;8.05;;;5.88;;
72791;SDS011;60907;53.268;8.764;2023-06-26T00:18:15;7.90;;;5.88;;
72791;SDS011;60907;53.268;8.764;2023-06-26T00:20:41;8.60;;;6.03;;
72791;SDS011;60907;53.268;8.764;2023-06-26T00:23:06;9.67;;;5.90;;
72791;SDS011;60907;53.268;8.764;2023-06-26T00:25:32;8.43;;;6.15;;
72791;SDS011;60907;53.268;8.764;2023-06-26T00:28:01;9.88;;;6.47;;
72791;SDS011;60907;53.268;8.764;2023-06-26T00:30:26;8.70;;;6.47;;
72791;SDS011;60907;53.268;8.764;2023-06-26T00:32:52;9.00;;;6.30;;
72791;SDS011;60907;53.268;8.764;2023-06-26T00:35:17;7.25;;;5.72;;
72791;SDS011;60907;53.268;8.764;2023-06-26T00:37:42;7.95;;;6.40;;
72791;SDS011;60907;53.268;8.764;2023-06-26T00:40:08;7.83;;;6.13;;
72791;SDS011;60907;53.268;8.764;2023-06-26T00:42:37;8.93;;;6.28;;
72791;SDS011;60907;53.268;8.764;2023-06-26T00:45:02;8.35;;;6.32;;
72791;SDS011;60907;53.268;8.764;2023-06-26T00:47:29;8.68;;;7.20;;
72791;SDS011;60907;53.268;8.764;2023-06-26T00:49:54;10.60;;;7.20;;
72791;SDS011;60907;53.268;8.764;2023-06-26T00:52:20;9.32;;;6.25;;
72791;SDS011;60907;53.268;8.764;2023-06-26T00:54:46;7.95;;;6.28;;
72791;SDS011;60907;53.268;8.764;2023-06-26T00:57:11;8.93;;;6.40;;
72791;SDS011;60907;53.268;8.764;2023-06-26T00:59:37;7.78;;;6.55;;
72791;SDS011;60907;53.268;8.764;2023-06-26T01:02:03;9.18;;;7.03;;
72791;SDS011;60907;53.268;8.764;2023-06-26T01:04:28;8.00;;;6.78;;
72791;SDS011;60907;53.268;8.764;2023-06-26T01:06:57;8.02;;;6.50;;
72791;SDS011;60907;53.268;8.764;2023-06-26T01:09:24;9.60;;;6.88;;
72791;SDS011;60907;53.268;8.764;2023-06-26T01:11:50;9.68;;;6.47;;
72791;SDS011;60907;53.268;8.764;2023-06-26T01:14:15;9.50;;;7.35;;
72791;SDS011;60907;53.268;8.764;2023-06-26T01:16:41;8.35;;;7.20;;
72791;SDS011;60907;53.268;8.764;2023-06-26T01:19:13;9.10;;;6.95;;
72791;SDS011;60907;53.268;8.764;2023-06-26T01:21:51;8.70;;;6.70;;
72791;SDS011;60907;53.268;8.764;2023-06-26T01:24:23;10.70;;;6.90;;
72791;SDS011;60907;53.268;8.764;2023-06-26T01:26:52;8.70;;;6.70;;
72791;SDS011;60907;53.268;8.764;2023-06-26T01:29:18;8.85;;;6.50;;
72791;SDS011;60907;53.268;8.764;2023-06-26T01:31:45;10.95;;;7.22;;
72791;SDS011;60907;53.268;8.764;2023-06-26T01:34:12;9.80;;;7.03;;
72791;SDS011;60907;53.268;8.764;2023-06-26T01:36:39;9.63;;;6.97;;
72791;SDS011;60907;53.268;8.764;2023-06-26T01:39:04;9.63;;;6.68;;
72791;SDS011;60907;53.268;8.764;2023-06-26T01:41:29;8.37;;;6.57;;
72791;SDS011;60907;53.268;8.764;2023-06-26T01:44:03;9.88;;;7.47;;
72791;SDS011;60907;53.268;8.764;2023-06-26T01:46:59;9.90;;;7.05;;
72791;SDS011;60907;53.268;8.764;2023-06-26T01:58:03;10.48;;;6.63;;
72791;SDS011;60907;53.268;8.764;2023-06-26T02:00:29;9.77;;;7.55;;
72791;SDS011;60907;53.268;8.764;2023-06-26T02:02:54;9.63;;;7.57;;
72791;SDS011;60907;53.268;8.764;2023-06-26T02:05:19;10.65;;;7.30;;
72791;SDS011;60907;53.268;8.764;2023-06-26T02:07:45;8.75;;;7.55;;
72791;SDS011;60907;53.268;8.764;2023-06-26T02:10:11;10.38;;;7.18;;
72791;SDS011;60907;53.268;8.764;2023-06-26T02:12:37;9.35;;;7.22;;
72791;SDS011;60907;53.268;8.764;2023-06-26T02:15:02;9.73;;;7.72;;
72791;SDS011;60907;53.268;8.764;2023-06-26T02:17:29;9.02;;;7.82;;
72791;SDS011;60907;53.268;8.764;2023-06-26T02:19:54;10.20;;;7.70;;
72791;SDS011;60907;53.268;8.764;2023-06-26T02:22:20;11.40;;;7.72;;
72791;SDS011;60907;53.268;8.764;2023-06-26T02:24:45;11.05;;;7.68;;
72791;SDS011;60907;53.268;8.764;2023-06-26T02:27:11;11.40;;;7.55;;
72791;SDS011;60907;53.268;8.764;2023-06-26T02:29:37;9.48;;;8.32;;
72791;SDS011;60907;53.268;8.764;2023-06-26T02:32:03;11.48;;;8.13;;
72791;SDS011;60907;53.268;8.764;2023-06-26T02:34:29;13.18;;;8.30;;
72791;SDS011;60907;53.268;8.764;2023-06-26T02:36:55;10.27;;;7.25;;
72791;SDS011;60907;53.268;8.764;2023-06-26T02:39:21;9.10;;;7.28;;
72791;SDS011;60907;53.268;8.764;2023-06-26T02:41:46;9.52;;;7.55;;
72791;SDS011;60907;53.268;8.764;2023-06-26T02:44:12;10.30;;;7.45;;
72791;SDS011;60907;53.268;8.764;2023-06-26T02:46:39;11.13;;;7.43;;
72791;SDS011;60907;53.268;8.764;2023-06-26T02:49:05;10.68;;;7.90;;
72791;SDS011;60907;53.268;8.764;2023-06-26T02:51:32;9.88;;;7.93;;
72791;SDS011;60907;53.268;8.764;2023-06-26T02:53:58;12.63;;;8.13;;
72791;SDS011;60907;53.268;8.764;2023-06-26T02:56:23;12.43;;;8.43;;
72791;SDS011;60907;53.268;8.764;2023-06-26T02:58:49;10.75;;;7.95;;
72791;SDS011;60907;53.268;8.764;2023-06-26T03:01:14;10.15;;;8.00;;
72791;SDS011;60907;53.268;8.764;2023-06-26T03:03:40;11.48;;;8.15;;
72791;SDS011;60907;53.268;8.764;2023-06-26T03:06:06;10.70;;;8.07;;
72791;SDS011;60907;53.268;8.764;2023-06-26T03:08:33;10.65;;;8.48;;
72791;SDS011;60907;53.268;8.764;2023-06-26T03:11:00;10.73;;;8.32;;
72791;SDS011;60907;53.268;8.764;2023-06-26T03:13:25;11.68;;;7.70;;
72791;SDS011;60907;53.268;8.764;2023-06-26T03:15:51;10.52;;;7.95;;
72791;SDS011;60907;53.268;8.764;2023-06-26T03:18:16;13.50;;;8.30;;
72791;SDS011;60907;53.268;8.764;2023-06-26T03:20:41;10.07;;;7.85;;
72791;SDS011;60907;53.268;8.764;2023-06-26T03:23:07;14.65;;;9.13;;
72791;SDS011;60907;53.268;8.764;2023-06-26T03:25:32;9.40;;;7.32;;
72791;SDS011;60907;53.268;8.764;2023-06-26T03:27:58;12.68;;;7.95;;
72791;SDS011;60907;53.268;8.764;2023-06-26T03:30:23;13.00;;;7.50;;
72791;SDS011;60907;53.268;8.764;2023-06-26T03:32:49;9.75;;;7.88;;
72791;SDS011;60907;53.268;8.764;2023-06-26T03:35:14;9.75;;;7.80;;
72791;SDS011;60907;53.268;8.764;2023-06-26T03:37:39;12.30;;;8.52;;
72791;SDS011;60907;53.268;8.764;2023-06-26T03:40:05;10.80;;;7.63;;
72791;SDS011;60907;53.268;8.764;2023-06-26T03:42:31;9.80;;;8.35;;
72791;SDS011;60907;53.268;8.764;2023-06-26T03:44:57;10.80;;;8.77;;
72791;SDS011;60907;53.268;8.764;2023-06-26T03:47:22;10.35;;;8.15;;
72791;SDS011;60907;53.268;8.764;2023-06-26T03:49:48;12.00;;;8.38;;
72791;SDS011;60907;53.268;8.764;2023-06-26T03:52:13;12.75;;;8.57;;
72791;SDS011;60907;53.268;8.764;2023-06-26T03:54:39;11.43;;;8.05;;
72791;SDS011;60907;53.268;8.764;2023-06-26T03:57:04;13.88;;;8.52;;
72791;SDS011;60907;53.268;8.764;2023-06-26T03:59:30;11.07;;;7.88;;
72791;SDS011;60907;53.268;8.764;2023-06-26T04:01:55;10.05;;;7.95;;
72791;SDS011;60907;53.268;8.764;2023-06-26T04:04:21;9.93;;;7.75;;
72791;SDS011;60907;53.268;8.764;2023-06-26T04:06:47;9.63;;;8.13;;
72791;SDS011;60907;53.268;8.764;2023-06-26T04:09:12;10.90;;;7.65;;
72791;SDS011;60907;53.268;8.764;2023-06-26T04:11:37;9.82;;;7.90;;
72791;SDS011;60907;53.268;8.764;2023-06-26T04:14:03;9.60;;;7.15;;
72791;SDS011;60907;53.268;8.764;2023-06-26T04:16:28;9.90;;;7.43;;
72791;SDS011;60907;53.268;8.764;2023-06-26T04:18:54;13.63;;;7.60;;
72791;SDS011;60907;53.268;8.764;2023-06-26T04:21:21;12.55;;;8.55;;
72791;SDS011;60907;53.268;8.764;2023-06-26T04:23:49;10.13;;;7.75;;
72791;SDS011;60907;53.268;8.764;2023-06-26T04:26:15;10.32;;;7.88;;
72791;SDS011;60907;53.268;8.764;2023-06-26T04:28:41;9.27;;;7.65;;
72791;SDS011;60907;53.268;8.764;2023-06-26T04:31:07;9.90;;;8.38;;
72791;SDS011;60907;53.268;8.764;2023-06-26T04:33:33;10.73;;;7.72;;
72791;SDS011;60907;53.268;8.764;2023-06-26T04:36:01;9.75;;;7.80;;
72791;SDS011;60907;53.268;8.764;2023-06-26T04:38:28;9.20;;;7.13;;
72791;SDS011;60907;53.268;8.764;2023-06-26T04:40:54;10.82;;;7.82;;
72791;SDS011;60907;53.268;8.764;2023-06-26T04:43:19;11.63;;;7.68;;
72791;SDS011;60907;53.268;8.764;2023-06-26T04:45:45;12.38;;;7.22;;
72791;SDS011;60907;53.268;8.764;2023-06-26T04:48:10;11.40;;;7.60;;
72791;SDS011;60907;53.268;8.764;2023-06-26T04:50:36;8.93;;;7.38;;
72791;SDS011;60907;53.268;8.764;2023-06-26T04:53:01;9.70;;;7.20;;
72791;SDS011;60907;53.268;8.764;2023-06-26T04:55:27;10.85;;;7.50;;
72791;SDS011;60907;53.268;8.764;2023-06-26T04:57:53;8.40;;;7.03;;
72791;SDS011;60907;53.268;8.764;2023-06-26T05:00:19;8.90;;;7.50;;
72791;SDS011;60907;53.268;8.764;2023-06-26T05:02:44;11.60;;;8.20;;
72791;SDS011;60907;53.268;8.764;2023-06-26T05:05:13;9.05;;;7.28;;
72791;SDS011;60907;53.268;8.764;2023-06-26T05:07:40;10.93;;;7.93;;
72791;SDS011;60907;53.268;8.764;2023-06-26T05:10:06;9.43;;;7.03;;
72791;SDS011;60907;53.268;8.764;2023-06-26T05:12:32;11.05;;;7.90;;
72791;SDS011;60907;53.268;8.764;2023-06-26T05:14:58;11.27;;;7.35;;
72791;SDS011;60907;53.268;8.764;2023-06-26T05:17:23;9.55;;;7.40;;
72791;SDS011;60907;53.268;8.764;2023-06-26T05:19:49;11.35;;;7.30;;
72791;SDS011;60907;53.268;8.764;2023-06-26T05:22:14;9.45;;;7.32;;
72791;SDS011;60907;53.268;8.764;2023-06-26T05:24:42;9.68;;;7.53;;
72791;SDS011;60907;53.268;8.764;2023-06-26T05:27:11;10.90;;;7.22;;
72791;SDS011;60907;53.268;8.764;2023-06-26T05:29:44;11.32;;;7.18;;
72791;SDS011;60907;53.268;8.764;2023-06-26T05:32:10;8.35;;;6.45;;
72791;SDS011;60907;53.268;8.764;2023-06-26T05:34:36;9.10;;;7.00;;
72791;SDS011;60907;53.268;8.764;2023-06-26T05:37:02;8.63;;;6.80;;
72791;SDS011;60907;53.268;8.764;2023-06-26T05:39:29;11.75;;;7.13;;
72791;SDS011;60907;53.268;8.764;2023-06-26T05:41:54;8.38;;;6.60;;
72791;SDS011;60907;53.268;8.764;2023-06-26T05:44:21;9.13;;;6.60;;
72791;SDS011;60907;53.268;8.764;2023-06-26T05:46:46;8.27;;;6.75;;
72791;SDS011;60907;53.268;8.764;2023-06-26T05:49:12;8.90;;;6.63;;
72791;SDS011;60907;53.268;8.764;2023-06-26T05:51:37;10.68;;;6.70;;
72791;SDS011;60907;53.268;8.764;2023-06-26T05:54:03;10.93;;;7.18;;
72791;SDS011;60907;53.268;8.764;2023-06-26T05:56:29;10.15;;;6.95;;
72791;SDS011;60907;53.268;8.764;2023-06-26T05:58:55;10.10;;;6.55;;
72791;SDS011;60907;53.268;8.764;2023-06-26T06:01:21;6.95;;;6.20;;
72791;SDS011;60907;53.268;8.764;2023-06-26T06:03:47;9.25;;;6.25;;
72791;SDS011;60907;53.268;8.764;2023-06-26T06:06:12;11.20;;;6.57;;
72791;SDS011;60907;53.268;8.764;2023-06-26T06:08:38;10.30;;;5.97;;
72791;SDS011;60907;53.268;8.764;2023-06-26T06:11:03;9.07;;;6.43;;
72791;SDS011;60907;53.268;8.764;2023-06-26T06:13:29;10.95;;;6.70;;
72791;SDS011;60907;53.268;8.764;2023-06-26T06:15:54;7.40;;;6.28;;
72791;SDS011;60907;53.268;8.764;2023-06-26T06:18:21;11.55;;;6.93;;
72791;SDS011;60907;53.268;8.764;2023-06-26T06:20:47;9.82;;;6.25;;
72791;SDS011;60907;53.268;8.764;2023-06-26T06:23:12;8.63;;;6.20;;
72791;SDS011;60907;53.268;8.764;2023-06-26T06:25:38;9.07;;;5.63;;
72791;SDS011;60907;53.268;8.764;2023-06-26T06:28:06;10.38;;;6.00;;
72791;SDS011;60907;53.268;8.764;2023-06-26T06:30:32;8.43;;;6.07;;
72791;SDS011;60907;53.268;8.764;2023-06-26T06:32:57;9.35;;;6.05;;
72791;SDS011;60907;53.268;8.764;2023-06-26T06:35:23;9.63;;;5.90;;
72791;SDS011;60907;53.268;8.764;2023-06-26T06:37:49;11.00;;;6.22;;
72791;SDS011;60907;53.268;8.764;2023-06-26T06:40:14;10.95;;;6.32;;
72791;SDS011;60907;53.268;8.764;2023-06-26T06:42:40;10.27;;;6.88;;
72791;SDS011;60907;53.268;8.764;2023-06-26T06:45:06;10.02;;;6.60;;
72791;SDS011;60907;53.268;8.764;2023-06-26T06:47:32;9.45;;;6.32;;
72791;SDS011;60907;53.268;8.764;2023-06-26T06:49:57;15.55;;;6.22;;
72791;SDS011;60907;53.268;8.764;2023-06-26T06:52:23;11.15;;;6.63;;
72791;SDS011;60907;53.268;8.764;2023-06-26T06:54:52;8.60;;;5.95;;
72791;SDS011;60907;53.268;8.764;2023-06-26T06:57:19;9.30;;;6.13;;
72791;SDS011;60907;53.268;8.764;2023-06-26T06:59:45;9.40;;;7.05;;
72791;SDS011;60907;53.268;8.764;2023-06-26T07:02:12;10.63;;;7.88;;
72791;SDS011;60907;53.268;8.764;2023-06-26T07:04:38;10.15;;;6.70;;
72791;SDS011;60907;53.268;8.764;2023-06-26T07:07:03;10.65;;;8.00;;
72791;SDS011;60907;53.268;8.764;2023-06-26T07:09:29;12.05;;;8.23;;
72791;SDS011;60907;53.268;8.764;2023-06-26T07:11:55;9.80;;;7.40;;
72791;SDS011;60907;53.268;8.764;2023-06-26T07:14:20;10.48;;;7.25;;
72791;SDS011;60907;53.268;8.764;2023-06-26T07:16:45;10.65;;;7.75;;
72791;SDS011;60907;53.268;8.764;2023-06-26T07:19:11;10.90;;;6.97;;
72791;SDS011;60907;53.268;8.764;2023-06-26T07:21:36;8.98;;;6.82;;
72791;SDS011;60907;53.268;8.764;2023-06-26T07:24:02;11.43;;;6.97;;
72791;SDS011;60907;53.268;8.764;2023-06-26T07:26:27;7.95;;;6.38;;
72791;SDS011;60907;53.268;8.764;2023-06-26T07:28:53;9.73;;;5.90;;
72791;SDS011;60907;53.268;8.764;2023-06-26T07:31:21;10.77;;;6.18;;
72791;SDS011;60907;53.268;8.764;2023-06-26T07:33:47;7.40;;;5.80;;
72791;SDS011;60907;53.268;8.764;2023-06-26T07:36:12;9.00;;;6.03;;
72791;SDS011;60907;53.268;8.764;2023-06-26T07:38:38;9.77;;;6.07;;
72791;SDS011;60907;53.268;8.764;2023-06-26T07:41:03;10.80;;;6.50;;
72791;SDS011;60907;53.268;8.764;2023-06-26T07:43:29;11.23;;;6.55;;
72791;SDS011;60907;53.268;8.764;2023-06-26T07:45:54;9.48;;;6.35;;
72791;SDS011;60907;53.268;8.764;2023-06-26T07:50:46;12.37;;;6.70;;
72791;SDS011;60907;53.268;8.764;2023-06-26T07:53:11;12.75;;;6.63;;
72791;SDS011;60907;53.268;8.764;2023-06-26T07:55:37;8.82;;;6.93;;
72791;SDS011;60907;53.268;8.764;2023-06-26T07:58:03;14.27;;;7.63;;
72791;SDS011;60907;53.268;8.764;2023-06-26T08:00:28;10.70;;;6.50;;
72791;SDS011;60907;53.268;8.764;2023-06-26T08:02:54;11.80;;;7.72;;
72791;SDS011;60907;53.268;8.764;2023-06-26T08:05:19;9.15;;;7.18;;
72791;SDS011;60907;53.268;8.764;2023-06-26T08:07:44;15.07;;;7.35;;
72791;SDS011;60907;53.268;8.764;2023-06-26T08:10:10;12.77;;;8.05;;
72791;SDS011;60907;53.268;8.764;2023-06-26T08:12:35;12.32;;;7.45;;
72791;SDS011;60907;53.268;8.764;2023-06-26T08:15:05;12.73;;;7.63;;
72791;SDS011;60907;53.268;8.764;2023-06-26T08:17:31;11.95;;;7.95;;
72791;SDS011;60907;53.268;8.764;2023-06-26T08:19:56;12.00;;;7.07;;
72791;SDS011;60907;53.268;8.764;2023-06-26T08:22:22;12.40;;;6.43;;
72791;SDS011;60907;53.268;8.764;2023-06-26T08:24:48;9.82;;;6.18;;
72791;SDS011;60907;53.268;8.764;2023-06-26T08:27:13;11.45;;;6.90;;
72791;SDS011;60907;53.268;8.764;2023-06-26T08:29:39;20.27;;;8.63;;
72791;SDS011;60907;53.268;8.764;2023-06-26T08:32:04;14.23;;;8.07;;
72791;SDS011;60907;53.268;8.764;2023-06-26T08:34:30;12.55;;;7.25;;
72791;SDS011;60907;53.268;8.764;2023-06-26T08:36:55;11.10;;;6.20;;
72791;SDS011;60907;53.268;8.764;2023-06-26T08:39:21;9.18;;;6.53;;
72791;SDS011;60907;53.268;8.764;2023-06-26T08:41:46;16.23;;;7.15;;
72791;SDS011;60907;53.268;8.764;2023-06-26T08:44:12;11.45;;;7.35;;
72791;SDS011;60907;53.268;8.764;2023-06-26T08:46:37;13.32;;;8.15;;
72791;SDS011;60907;53.268;8.764;2023-06-26T08:49:20;12.00;;;7.65;;
72791;SDS011;60907;53.268;8.764;2023-06-26T08:51:52;14.10;;;8.77;;
72791;SDS011;60907;53.268;8.764;2023-06-26T08:54:22;13.23;;;8.52;;
72791;SDS011;60907;53.268;8.764;2023-06-26T08:56:53;16.42;;;9.52;;
72791;SDS011;60907;53.268;8.764;2023-06-26T08:59:19;15.35;;;10.23;;
72791;SDS011;60907;53.268;8.764;2023-06-26T09:01:46;14.57;;;10.07;;
72791;SDS011;60907;53.268;8.764;2023-06-26T09:04:11;16.27;;;10.82;;
72791;SDS011;60907;53.268;8.764;2023-06-26T09:06:37;14.60;;;9.50;;
72791;SDS011;60907;53.268;8.764;2023-06-26T09:09:04;17.10;;;9.73;;
72791;SDS011;60907;53.268;8.764;2023-06-26T09:11:30;14.57;;;10.10;;
72791;SDS011;60907;53.268;8.764;2023-06-26T09:13:55;16.13;;;8.25;;
72791;SDS011;60907;53.268;8.764;2023-06-26T09:16:24;13.82;;;8.32;;
72791;SDS011;60907;53.268;8.764;2023-06-26T09:18:51;12.52;;;7.85;;
72791;SDS011;60907;53.268;8.764;2023-06-26T09:21:17;16.73;;;8.27;;
72791;SDS011;60907;53.268;8.764;2023-06-26T09:23:43;16.13;;;8.02;;
72791;SDS011;60907;53.268;8.764;2023-06-26T09:26:08;10.10;;;6.28;;
72791;SDS011;60907;53.268;8.764;2023-06-26T09:28:34;10.45;;;5.22;;
72791;SDS011;60907;53.268;8.764;2023-06-26T09:31:04;9.88;;;5.20;;
72791;SDS011;60907;53.268;8.764;2023-06-26T09:33:34;7.93;;;4.93;;
72791;SDS011;60907;53.268;8.764;2023-06-26T09:36:06;7.53;;;4.40;;
72791;SDS011;60907;53.268;8.764;2023-06-26T09:38:37;7.95;;;4.38;;
72791;SDS011;60907;53.268;8.764;2023-06-26T09:41:03;8.35;;;4.10;;
72791;SDS011;60907;53.268;8.764;2023-06-26T09:43:28;6.18;;;3.10;;
72791;SDS011;60907;53.268;8.764;2023-06-26T09:45:56;10.70;;;3.05;;
72791;SDS011;60907;53.268;8.764;2023-06-26T09:48:21;6.18;;;2.70;;
72791;SDS011;60907;53.268;8.764;2023-06-26T09:50:47;8.10;;;2.47;;
72791;SDS011;60907;53.268;8.764;2023-06-26T09:53:13;4.28;;;2.47;;
72791;SDS011;60907;53.268;8.764;2023-06-26T09:55:38;4.97;;;2.50;;
72791;SDS011;60907;53.268;8.764;2023-06-26T09:58:06;9.48;;;2.65;;
72791;SDS011;60907;53.268;8.764;2023-06-26T10:00:31;5.30;;;2.25;;
72791;SDS011;60907;53.268;8.764;2023-06-26T10:03:00;6.40;;;2.70;;
72791;SDS011;60907;53.268;8.764;2023-06-26T10:05:26;3.30;;;1.88;;
72791;SDS011;60907;53.268;8.764;2023-06-26T10:07:52;5.13;;;2.00;;
72791;SDS011;60907;53.268;8.764;2023-06-26T10:10:18;5.53;;;1.83;;
72791;SDS011;60907;53.268;8.764;2023-06-26T10:12:44;7.65;;;1.98;;
72791;SDS011;60907;53.268;8.764;2023-06-26T10:15:13;4.15;;;1.85;;
72791;SDS011;60907;53.268;8.764;2023-06-26T10:17:42;4.78;;;1.80;;
72791;SDS011;60907;53.268;8.764;2023-06-26T10:20:08;4.55;;;1.92;;
72791;SDS011;60907;53.268;8.764;2023-06-26T10:22:36;2.88;;;1.50;;
72791;SDS011;60907;53.268;8.764;2023-06-26T10:25:06;5.15;;;1.60;;
72791;SDS011;60907;53.268;8.764;2023-06-26T10:30:00;2.45;;;0.98;;
72791;SDS011;60907;53.268;8.764;2023-06-26T10:32:28;3.80;;;1.15;;
72791;SDS011;60907;53.268;8.764;2023-06-26T10:34:54;4.75;;;1.10;;
72791;SDS011;60907;53.268;8.764;2023-06-26T10:37:20;5.10;;;1.25;;
72791;SDS011;60907;53.268;8.764;2023-06-26T10:39:50;5.97;;;1.63;;
72791;SDS011;60907;53.268;8.764;2023-06-26T10:42:19;3.65;;;0.93;;
72791;SDS011;60907;53.268;8.764;2023-06-26T10:44:46;7.70;;;1.75;;
72791;SDS011;60907;53.268;8.764;2023-06-26T10:47:32;5.35;;;1.73;;
72791;SDS011;60907;53.268;8.764;2023-06-26T10:56:06;3.78;;;0.82;;
72791;SDS011;60907;53.268;8.764;2023-06-26T11:01:22;3.45;;;0.93;;
72791;SDS011;60907;53.268;8.764;2023-06-26T11:03:49;5.07;;;0.90;;
72791;SDS011;60907;53.268;8.764;2023-06-26T11:14:24;4.93;;;1.25;;
72791;SDS011;60907;53.268;8.764;2023-06-26T11:16:51;3.33;;;1.05;;
72791;SDS011;60907;53.268;8.764;2023-06-26T11:19:17;2.90;;;1.40;;
72791;SDS011;60907;53.268;8.764;2023-06-26T11:21:43;4.30;;;1.02;;
72791;SDS011;60907;53.268;8.764;2023-06-26T11:24:09;2.67;;;0.98;;
72791;SDS011;60907;53.268;8.764;2023-06-26T11:26:39;6.82;;;1.45;;
72791;SDS011;60907;53.268;8.764;2023-06-26T11:29:05;7.35;;;1.48;;
72791;SDS011;60907;53.268;8.764;2023-06-26T11:34:02;4.13;;;1.30;;
72791;SDS011;60907;53.268;8.764;2023-06-26T11:36:29;3.78;;;1.27;;
72791;SDS011;60907;53.268;8.764;2023-06-26T11:38:55;3.00;;;1.23;;
72791;SDS011;60907;53.268;8.764;2023-06-26T11:41:22;4.38;;;1.10;;
72791;SDS011;60907;53.268;8.764;2023-06-26T11:46:16;4.07;;;1.50;;
72791;SDS011;60907;53.268;8.764;2023-06-26T11:48:42;3.67;;;1.20;;
72791;SDS011;60907;53.268;8.764;2023-06-26T11:51:08;2.97;;;1.00;;
72791;SDS011;60907;53.268;8.764;2023-06-26T11:53:38;3.83;;;1.55;;
72791;SDS011;60907;53.268;8.764;2023-06-26T11:56:11;4.68;;;1.50;;
72791;SDS011;60907;53.268;8.764;2023-06-26T12:01:30;4.75;;;1.45;;
72791;SDS011;60907;53.268;8.764;2023-06-26T12:03:58;2.95;;;1.40;;
72791;SDS011;60907;53.268;8.764;2023-06-26T12:06:25;3.65;;;1.15;;
72791;SDS011;60907;53.268;8.764;2023-06-26T12:08:51;3.38;;;1.20;;
72791;SDS011;60907;53.268;8.764;2023-06-26T12:11:17;3.65;;;1.00;;
72791;SDS011;60907;53.268;8.764;2023-06-26T12:13:42;2.40;;;0.90;;
72791;SDS011;60907;53.268;8.764;2023-06-26T12:16:08;5.93;;;1.40;;
72791;SDS011;60907;53.268;8.764;2023-06-26T12:18:34;4.45;;;1.20;;
72791;SDS011;60907;53.268;8.764;2023-06-26T12:21:00;3.08;;;1.75;;
72791;SDS011;60907;53.268;8.764;2023-06-26T12:23:32;2.17;;;1.10;;
72791;SDS011;60907;53.268;8.764;2023-06-26T12:26:19;1.92;;;0.88;;
72791;SDS011;60907;53.268;8.764;2023-06-26T12:28:45;7.00;;;1.33;;
72791;SDS011;60907;53.268;8.764;2023-06-26T12:33:39;3.22;;;1.23;;
72791;SDS011;60907;53.268;8.764;2023-06-26T12:36:05;5.38;;;1.15;;
72791;SDS011;60907;53.268;8.764;2023-06-26T12:38:35;3.28;;;1.20;;
72791;SDS011;60907;53.268;8.764;2023-06-26T12:41:01;3.20;;;1.40;;
72791;SDS011;60907;53.268;8.764;2023-06-26T12:43:26;1.65;;;0.95;;
72791;SDS011;60907;53.268;8.764;2023-06-26T12:45:55;3.00;;;1.10;;
72791;SDS011;60907;53.268;8.764;2023-06-26T12:48:21;3.13;;;1.20;;
72791;SDS011;60907;53.268;8.764;2023-06-26T12:51:07;3.53;;;1.15;;
72791;SDS011;60907;53.268;8.764;2023-06-26T12:53:33;5.32;;;1.13;;
72791;SDS011;60907;53.268;8.764;2023-06-26T12:55:59;2.15;;;1.00;;
72791;SDS011;60907;53.268;8.764;2023-06-26T12:58:24;2.85;;;1.10;;
72791;SDS011;60907;53.268;8.764;2023-06-26T13:00:49;2.95;;;1.17;;
72791;SDS011;60907;53.268;8.764;2023-06-26T13:03:15;2.63;;;0.93;;
72791;SDS011;60907;53.268;8.764;2023-06-26T13:05:40;2.10;;;1.20;;
72791;SDS011;60907;53.268;8.764;2023-06-26T13:08:06;5.90;;;2.35;;
72791;SDS011;60907;53.268;8.764;2023-06-26T13:10:31;3.05;;;1.10;;
72791;SDS011;60907;53.268;8.764;2023-06-26T13:12:56;2.47;;;1.02;;
72791;SDS011;60907;53.268;8.764;2023-06-26T13:15:22;3.67;;;1.23;;
72791;SDS011;60907;53.268;8.764;2023-06-26T13:17:47;3.97;;;1.33;;
72791;SDS011;60907;53.268;8.764;2023-06-26T13:20:13;3.55;;;1.02;;
72791;SDS011;60907;53.268;8.764;2023-06-26T13:22:38;2.30;;;1.15;;
72791;SDS011;60907;53.268;8.764;2023-06-26T13:25:04;2.58;;;1.20;;
72791;SDS011;60907;53.268;8.764;2023-06-26T13:27:29;3.55;;;1.20;;
72791;SDS011;60907;53.268;8.764;2023-06-26T13:29:55;5.07;;;1.73;;
72791;SDS011;60907;53.268;8.764;2023-06-26T13:32:20;5.57;;;1.50;;
72791;SDS011;60907;53.268;8.764;2023-06-26T13:34:46;3.45;;;1.25;;
72791;SDS011;60907;53.268;8.764;2023-06-26T13:37:13;3.35;;;1.42;;
72791;SDS011;60907;53.268;8.764;2023-06-26T13:39:38;3.53;;;1.20;;
72791;SDS011;60907;53.268;8.764;2023-06-26T13:42:04;3.90;;;1.40;;
72791;SDS011;60907;53.268;8.764;2023-06-26T13:44:29;1.92;;;1.05;;
72791;SDS011;60907;53.268;8.764;2023-06-26T13:46:55;3.65;;;1.30;;
72791;SDS011;60907;53.268;8.764;2023-06-26T13:49:20;3.50;;;1.20;;
72791;SDS011;60907;53.268;8.764;2023-06-26T13:51:46;3.70;;;1.10;;
72791;SDS011;60907;53.268;8.764;2023-06-26T13:54:13;2.53;;;1.02;;
72791;SDS011;60907;53.268;8.764;2023-06-26T13:56:38;3.03;;;0.98;;
72791;SDS011;60907;53.268;8.764;2023-06-26T13:59:04;3.47;;;1.30;;
72791;SDS011;60907;53.268;8.764;2023-06-26T14:01:30;2.42;;;0.95;;
72791;SDS011;60907;53.268;8.764;2023-06-26T14:03:56;2.00;;;1.17;;
72791;SDS011;60907;53.268;8.764;2023-06-26T14:06:21;2.50;;;1.30;;
72791;SDS011;60907;53.268;8.764;2023-06-26T14:08:47;1.65;;;0.77;;
72791;SDS011;60907;53.268;8.764;2023-06-26T14:11:12;3.10;;;1.02;;
72791;SDS011;60907;53.268;8.764;2023-06-26T14:13:37;2.70;;;1.17;;
72791;SDS011;60907;53.268;8.764;2023-06-26T14:16:03;4.43;;;1.00;;
72791;SDS011;60907;53.268;8.764;2023-06-26T14:18:29;2.08;;;0.82;;
72791;SDS011;60907;53.268;8.764;2023-06-26T14:20:55;1.55;;;0.75;;
72791;SDS011;60907;53.268;8.764;2023-06-26T14:23:21;3.50;;;0.90;;
72791;SDS011;60907;53.268;8.764;2023-06-26T14:25:47;2.28;;;0.95;;
72791;SDS011;60907;53.268;8.764;2023-06-26T14:28:12;1.70;;;0.80;;
72791;SDS011;60907;53.268;8.764;2023-06-26T14:30:38;1.27;;;0.80;;
72791;SDS011;60907;53.268;8.764;2023-06-26T14:33:03;1.55;;;0.80;;
72791;SDS011;60907;53.268;8.764;2023-06-26T14:35:29;3.97;;;1.27;;
72791;SDS011;60907;53.268;8.764;2023-06-26T14:37:54;1.98;;;0.90;;
72791;SDS011;60907;53.268;8.764;2023-06-26T14:40:20;2.72;;;0.80;;
72791;SDS011;60907;53.268;8.764;2023-06-26T14:42:45;2.05;;;0.80;;
72791;SDS011;60907;53.268;8.764;2023-06-26T14:45:11;1.52;;;0.68;;
72791;SDS011;60907;53.268;8.764;2023-06-26T14:47:36;2.88;;;0.80;;
72791;SDS011;60907;53.268;8.764;2023-06-26T14:50:02;1.67;;;0.70;;
72791;SDS011;60907;53.268;8.764;2023-06-26T14:52:27;3.15;;;0.95;;
72791;SDS011;60907;53.268;8.764;2023-06-26T14:54:53;1.42;;;0.82;;
72791;SDS011;60907;53.268;8.764;2023-06-26T14:57:18;2.95;;;0.82;;
72791;SDS011;60907;53.268;8.764;2023-06-26T14:59:43;2.15;;;0.50;;
72791;SDS011;60907;53.268;8.764;2023-06-26T15:02:09;2.20;;;0.80;;
72791;SDS011;60907;53.268;8.764;2023-06-26T15:04:34;3.58;;;0.90;;
72791;SDS011;60907;53.268;8.764;2023-06-26T15:07:00;2.60;;;0.82;;
72791;SDS011;60907;53.268;8.764;2023-06-26T15:09:25;3.50;;;0.77;;
72791;SDS011;60907;53.268;8.764;2023-06-26T15:11:51;3.08;;;1.00;;
72791;SDS011;60907;53.268;8.764;2023-06-26T15:14:16;1.65;;;0.90;;
72791;SDS011;60907;53.268;8.764;2023-06-26T15:16:42;4.68;;;0.93;;
72791;SDS011;60907;53.268;8.764;2023-06-26T15:19:07;3.33;;;1.23;;